Latest Weather Observations for Territory Grape Farm

IDD60801

Issued at 7:35 pm CST Wednesday 16 April 2014 (issued every 30 minutes, with the page automatically refreshed every 10 minutes)

About weather observations | Map of weather stations | Latest weather observations for NT | Other Formats
Station Details ID: 015643 Name: TERRITORY GRAPE FARM Lat: -22.45 Lon: 133.64 Height: 565.6 m
Data from the previous 72 hours. | See also: Recent months at Territory Grape Farm
Date/Time
CST
Temp
°C
App
Temp
°C
Dew
Point
Rel
Hum
%
Delta-T
°C
Wind Press
QNH
hPa
Press
MSL
hPa
Rain
since 9 am
mm
Dir
 
Spd
km/h
Gust
km/h
Spd
kts
Gust
kts
16/07:30pm 23.1 19.8 6.4 34 8.8 SE 13 17 7 9 1018.7 1015.9 0.0
16/07:00pm 23.7 20.6 5.6 31 9.4 SSE 11 15 6 8 1018.3 - 0.0
16/06:30pm 24.9 21.7 5.2 28 10.2 SSE 11 15 6 8 1017.9 1015.1 0.0
16/06:00pm 26.4 22.3 4.2 24 11.4 SSE 15 20 8 11 1017.6 1014.8 0.0
16/05:30pm 27.3 22.8 4.4 23 11.9 SSE 17 24 9 13 1017.3 1014.5 0.0
16/05:00pm 27.8 23.8 4.8 23 12.1 SE 15 24 8 13 1017.1 - 0.0
16/04:30pm 28.4 24.3 4.6 22 12.5 SE 15 24 8 13 1017.0 1014.2 0.0
16/04:00pm 28.5 24.7 6.0 24 12.1 ESE 15 32 8 17 1016.7 - 0.0
16/03:30pm 28.2 24.8 5.7 24 12.0 SSE 13 24 7 13 1016.9 1014.0 0.0
16/03:00pm 28.4 24.6 5.9 24 12.1 SE 15 24 8 13 1017.2 1014.4 0.0
16/02:30pm 27.7 24.3 5.9 25 11.7 SE 13 20 7 11 1017.4 1014.6 0.0
16/02:00pm 27.5 23.4 6.3 26 11.4 SE 17 32 9 17 1017.8 - 0.0
16/01:30pm 27.8 24.3 7.1 27 11.3 E 15 28 8 15 1018.2 1015.3 0.0
16/01:00pm 26.7 23.4 6.2 27 11.0 SE 13 20 7 11 1018.7 - 0.0
16/12:30pm 26.5 22.2 7.0 29 10.5 SE 19 30 10 16 1019.2 1016.4 0.0
16/12:00pm 25.9 23.0 8.0 32 9.8 E 13 19 7 10 1019.8 1017.0 0.0
16/11:30am 25.9 22.0 8.8 34 9.5 ESE 19 28 10 15 1020.4 1017.6 0.0
16/11:00am 24.8 20.6 8.3 35 9.1 SE 20 32 11 17 1020.7 - 0.0
16/10:30am 24.1 20.1 8.9 38 8.4 ESE 20 30 11 16 1021.0 1018.2 0.0
16/10:00am 23.0 17.4 8.7 40 7.8 ESE 28 33 15 18 1021.1 - 0.0
16/09:30am 22.2 17.4 9.0 43 7.2 ESE 24 33 13 18 1021.1 1018.3 0.0
16/09:00am 20.9 15.8 9.2 47 6.4 ESE 26 33 14 18 1021.0 1018.2 0.0
16/08:30am 19.6 15.9 9.5 52 5.5 SE 19 26 10 14 1020.8 1018.0 0.0
16/08:00am 17.2 15.6 10.1 63 3.9 SE 9 15 5 8 1020.7 - 0.0
16/07:30am 14.4 13.3 10.0 75 2.3 S 6 9 3 5 1020.5 1017.7 0.0
16/07:00am 12.9 11.7 9.7 81 1.7 SSE 6 6 3 3 1020.2 - 0.0
16/06:30am 12.8 11.6 9.4 80 1.8 SSE 6 7 3 4 1019.8 1017.0 0.0
16/06:00am 13.6 12.2 9.6 77 2.1 S 7 11 4 6 1019.5 1016.7 0.0
16/05:30am 13.8 12.6 9.6 76 2.2 S 6 9 3 5 1019.4 1016.6 0.0
16/05:00am 14.2 12.8 9.6 74 2.4 S 7 9 4 5 1019.2 - 0.0
16/04:30am 14.9 13.5 9.7 71 2.8 SSE 7 11 4 6 1019.0 1016.2 0.0
16/04:00am 15.3 13.6 9.7 69 3.0 SSE 9 11 5 6 1018.9 - 0.0
16/03:30am 15.5 13.7 9.6 68 3.1 SSE 9 13 5 7 1018.9 1016.1 0.0
16/03:00am 16.0 14.2 9.4 65 3.5 S 9 11 5 6 1019.0 1016.2 0.0
16/02:30am 16.3 14.5 9.5 64 3.6 S 9 13 5 7 1019.2 1016.4 0.0
16/02:00am 16.6 14.8 9.5 63 3.8 SSE 9 13 5 7 1019.3 - 0.0
16/01:30am 16.7 14.6 9.6 63 3.8 SSE 11 13 6 7 1019.5 1016.7 0.0
16/01:00am 17.3 15.6 9.7 61 4.1 SSE 9 13 5 7 1019.7 - 0.0
16/12:30am 17.8 16.0 9.4 58 4.5 SSE 9 13 5 7 1019.7 1016.9 0.0
16/12:00am 18.8 16.6 9.3 54 5.1 SSE 11 15 6 8 1019.7 1016.9 0.0
 
Date/Time
CST
Temp
°C
App
Temp
°C
Dew
Point
Rel
Hum
%
Delta-T
°C
Wind Press
QNH
hPa
Press
MSL
hPa
Rain
since 9 am
mm
Dir
 
Spd
km/h
Gust
km/h
Spd
kts
Gust
kts
15/11:30pm 19.1 16.9 9.3 53 5.3 SSE 11 15 6 8 1019.8 1017.0 0.0
15/11:00pm 19.7 17.1 9.3 51 5.7 SSE 13 17 7 9 1019.8 - 0.0
15/10:30pm 20.0 17.5 9.6 51 5.7 SSE 13 19 7 10 1019.7 1016.9 0.0
15/10:00pm 20.3 17.7 9.5 50 5.9 SSE 13 19 7 10 1019.6 - 0.0
15/09:30pm 20.3 18.1 9.2 49 6.0 SSE 11 15 6 8 1019.4 1016.6 0.0
15/09:00pm 21.4 18.7 9.0 45 6.8 SSE 13 17 7 9 1019.3 1016.5 0.0
15/08:30pm 22.1 19.0 8.9 43 7.2 SSE 15 20 8 11 1019.0 1016.2 0.0
15/08:00pm 22.4 19.6 8.5 41 7.6 SSE 13 19 7 10 1018.5 - 0.0
15/07:30pm 23.1 20.3 8.4 39 8.0 SSE 13 19 7 10 1018.0 1015.2 0.0
15/07:00pm 23.8 20.5 8.2 37 8.5 SSE 15 22 8 12 1017.7 - 0.0
15/06:30pm 24.5 21.1 7.6 34 9.1 SE 15 20 8 11 1017.5 1014.7 0.0
15/06:00pm 25.6 22.1 7.2 31 9.9 SSE 15 19 8 10 1017.3 1014.5 0.0
15/05:30pm 26.5 23.1 7.5 30 10.4 SSE 15 26 8 14 1017.0 1014.2 0.0
15/05:00pm 27.0 23.7 8.0 30 10.5 SE 15 24 8 13 1016.9 - 0.0
15/04:30pm 27.2 24.2 7.6 29 10.8 ESE 13 24 7 13 1016.9 1014.0 0.0
15/04:00pm 27.5 24.4 7.4 28 11.0 SSE 13 24 7 13 1016.8 - 0.0
15/03:30pm 26.9 23.3 6.9 28 10.8 SE 15 28 8 15 1016.7 1013.8 0.0
15/03:00pm 26.9 24.1 8.4 31 10.3 ESE 13 28 7 15 1016.7 1013.8 0.0
15/02:30pm 27.0 24.5 8.4 31 10.3 ESE 11 20 6 11 1016.9 1014.0 0.0
15/02:00pm 26.4 23.1 7.9 31 10.2 E 15 24 8 13 1017.4 - 0.0
15/01:30pm 26.0 21.9 8.0 32 9.9 SE 19 30 10 16 1017.8 1015.0 0.0
15/01:00pm 25.3 21.6 7.9 33 9.5 E 17 26 9 14 1018.4 - 0.0
15/12:30pm 25.3 20.7 8.3 34 9.3 ESE 22 32 12 17 1019.0 1016.2 0.0
15/12:00pm 24.5 19.9 8.0 35 9.0 E 22 30 12 16 1019.7 1016.9 0.0
15/11:30am 24.2 19.7 8.6 37 8.6 ESE 22 33 12 18 1019.9 1017.1 0.0
15/11:00am 23.5 19.4 8.8 39 8.1 SE 20 32 11 17 1020.2 - 0.0
15/10:30am 22.7 17.5 8.8 41 7.6 ESE 26 41 14 22 1020.3 1017.5 0.0
15/10:00am 22.4 17.8 9.6 44 7.1 ESE 24 33 13 18 1020.3 - 0.0
15/09:30am 21.2 15.2 8.8 45 6.7 SE 30 39 16 21 1020.3 1017.5 0.0
15/09:00am 20.2 15.1 9.2 49 6.0 SE 26 33 14 18 1020.1 1017.2 0.0
15/08:30am 19.0 14.3 9.2 53 5.3 SE 24 33 13 18 1019.6 1016.8 0.0
15/08:00am 17.4 14.9 9.6 60 4.2 SSE 13 24 7 13 1019.5 - 0.0
15/07:30am 15.4 13.2 9.5 68 3.1 SSE 11 15 6 8 1019.1 1016.3 0.0
15/07:00am 14.2 12.0 9.4 73 2.5 SSE 11 15 6 8 1018.9 - 0.0
15/06:30am 13.6 11.8 9.3 75 2.3 SSE 9 11 5 6 1018.6 1015.8 0.0
15/06:00am 13.9 12.4 9.3 74 2.4 S 7 11 4 6 1018.5 1015.6 0.0
15/05:30am 13.7 12.3 9.4 75 2.3 SSE 7 11 4 6 1018.6 1015.8 0.0
15/05:00am 13.8 12.3 9.3 74 2.4 S 7 11 4 6 1018.4 - 0.0
15/04:30am 14.2 12.9 9.2 72 2.6 SSE 6 9 3 5 1018.4 1015.5 0.0
15/04:00am 15.2 13.0 9.3 68 3.1 S 11 17 6 9 1018.2 - 0.0
15/03:30am 15.3 13.4 9.2 67 3.2 S 9 13 5 7 1018.3 1015.4 0.0
15/03:00am 15.9 13.6 9.1 64 3.6 S 11 15 6 8 1018.4 1015.5 0.0
15/02:30am 15.9 13.6 9.1 64 3.6 S 11 15 6 8 1018.4 1015.5 0.0
15/02:00am 16.6 14.3 9.1 61 4.0 SSE 11 15 6 8 1018.5 - 0.0
15/01:30am 16.8 14.5 9.0 60 4.1 SSE 11 15 6 8 1018.6 1015.8 0.0
15/01:00am 17.0 14.7 8.9 59 4.3 SSE 11 13 6 7 1018.8 - 0.0
15/12:30am 17.7 15.0 8.8 56 4.7 SSE 13 17 7 9 1018.9 1016.1 0.0
15/12:00am 17.9 15.5 8.7 55 4.9 SSE 11 19 6 10 1018.9 1016.1 0.0
 
Date/Time
CST
Temp
°C
App
Temp
°C
Dew
Point
Rel
Hum
%
Delta-T
°C
Wind Press
QNH
hPa
Press
MSL
hPa
Rain
since 9 am
mm
Dir
 
Spd
km/h
Gust
km/h
Spd
kts
Gust
kts
14/11:30pm 18.4 16.0 8.7 53 5.2 SSE 11 17 6 9 1019.0 1016.2 0.0
14/11:00pm 18.9 16.2 8.8 52 5.4 SSE 13 17 7 9 1019.0 - 0.0
14/10:30pm 19.5 16.8 8.8 50 5.7 SSE 13 17 7 9 1019.0 1016.2 0.0
14/10:00pm 19.8 17.1 8.8 49 5.9 SSE 13 20 7 11 1018.8 - 0.0
14/09:30pm 20.0 17.3 9.0 49 5.9 SSE 13 15 7 8 1018.7 1015.9 0.0
14/09:00pm 20.1 17.8 9.1 49 6.0 SSE 11 15 6 8 1018.4 1015.5 0.0
14/08:30pm 20.0 18.0 8.7 48 6.1 S 9 13 5 7 1018.2 1015.3 0.0
14/08:00pm 20.9 18.5 8.5 45 6.7 S 11 13 6 7 1017.6 - 0.0
14/07:30pm 21.7 19.6 8.2 42 7.3 SSE 9 13 5 7 1017.2 1014.4 0.0
14/07:00pm 22.8 19.8 7.8 38 8.1 SSE 13 17 7 9 1016.7 - 0.0
14/06:30pm 23.9 21.2 7.5 35 8.8 SSE 11 19 6 10 1016.4 1013.5 0.0
14/06:00pm 25.0 21.6 7.6 33 9.4 SSE 15 20 8 11 1016.0 1013.2 0.0
14/05:30pm 25.7 22.0 7.8 32 9.8 SE 17 28 9 15 1015.5 1012.7 0.0
14/05:00pm 26.0 22.7 8.0 32 9.9 SSE 15 26 8 14 1015.1 - 0.0
14/04:30pm 26.2 22.9 8.2 32 9.9 SSE 15 26 8 14 1014.8 1011.9 0.0
14/04:00pm 26.3 23.9 8.8 33 9.8 SSE 11 22 6 12 1014.9 - 0.0
14/03:30pm 26.5 23.4 8.9 33 9.8 ESE 15 26 8 14 1014.9 1012.0 0.0
14/03:00pm 26.3 23.2 8.8 33 9.8 SE 15 22 8 12 1015.1 1012.2 0.0
14/02:30pm 26.1 22.8 9.5 35 9.4 SE 17 28 9 15 1015.4 1012.6 0.0
14/02:00pm 25.9 23.0 9.7 36 9.2 ESE 15 26 8 14 1015.8 - 0.0
14/01:30pm 25.4 22.9 9.7 37 8.9 SE 13 20 7 11 1016.0 1013.2 0.0
14/01:00pm 24.4 22.6 9.6 39 8.3 SSE 9 17 5 9 1016.5 - 0.0
14/12:30pm 24.4 21.5 9.6 39 8.3 SE 15 24 8 13 1016.7 1013.8 0.0
14/12:00pm 24.1 20.7 10.4 42 7.8 ESE 19 26 10 14 1017.2 1014.4 0.0
14/11:30am 23.4 20.1 10.8 45 7.2 SE 19 28 10 15 1017.6 1014.8 0.0
14/11:00am 23.0 20.0 10.8 46 6.9 SE 17 32 9 17 1018.2 - 0.0
14/10:30am 22.1 18.3 11.2 50 6.2 ESE 22 30 12 16 1018.4 1015.5 0.0
14/10:00am 20.8 16.1 10.6 52 5.7 SE 26 33 14 18 1018.5 - 0.0
14/09:30am 20.0 15.3 10.7 55 5.2 SE 26 37 14 20 1018.5 1015.6 0.0
14/09:00am 19.0 14.1 9.8 55 5.0 SE 26 35 14 19 1018.3 1015.4 0.0
14/08:30am 17.9 14.7 10.0 60 4.3 SSE 17 20 9 11 1018.2 1015.3 0.0
14/08:00am 16.1 14.2 10.4 69 3.1 S 11 19 6 10 1018.0 - 0.0
14/07:30am 13.8 12.8 10.4 80 1.8 S 6 13 3 7 1017.8 1015.0 0.0
14/07:00am 12.6 11.5 10.0 84 1.4 S 6 9 3 5 1017.7 - 0.0
14/06:30am 12.7 11.4 9.9 83 1.5 S 7 11 4 6 1017.6 1014.8 0.0
14/06:00am 13.3 12.0 9.9 80 1.8 S 7 11 4 6 1017.3 1014.5 0.0
14/05:30am 13.4 11.7 10.0 80 1.8 S 9 11 5 6 1017.2 1014.4 0.0
14/05:00am 13.4 11.8 10.2 81 1.7 S 9 13 5 7 1017.1 - 0.0
14/04:30am 13.3 12.1 10.3 82 1.6 S 7 11 4 6 1017.1 1014.3 0.0
14/04:00am 13.6 12.4 10.4 81 1.7 S 7 9 4 5 1017.2 - 0.0
14/03:30am 14.0 12.5 10.4 79 1.9 S 9 11 5 6 1017.1 1014.3 0.0
14/03:00am 14.3 13.1 10.3 77 2.1 S 7 11 4 6 1017.3 1014.5 0.0
14/02:30am 14.4 13.2 10.4 77 2.2 S 7 11 4 6 1017.5 1014.7 0.0
14/02:00am 14.6 13.6 10.4 76 2.3 S 6 7 3 4 1017.3 - 0.0
14/01:30am 14.9 13.8 10.5 75 2.4 S 7 11 4 6 1017.3 1014.5 0.0
14/01:00am 15.2 14.0 10.4 73 2.6 S 7 9 4 5 1017.6 - 0.0
14/12:30am 16.0 14.9 9.9 67 3.3 S 6 7 3 4 1017.9 1015.1 0.0
14/12:00am 17.1 15.3 9.3 60 4.2 SSE 9 13 5 7 1017.8 1015.0 0.0
 
Date/Time
CST
Temp
°C
App
Temp
°C
Dew
Point
Rel
Hum
%
Delta-T
°C
Wind Press
QNH
hPa
Press
MSL
hPa
Rain
since 9 am
mm
Dir
 
Spd
km/h
Gust
km/h
Spd
kts
Gust
kts
13/11:30pm 17.8 15.2 9.4 58 4.5 SE 13 19 7 10 1017.9 1015.1 0.0
13/11:00pm 18.1 15.5 9.5 57 4.7 SE 13 19 7 10 1018.0 - 0.0
13/10:30pm 18.4 15.8 9.2 55 4.9 SSE 13 17 7 9 1018.0 1015.2 0.0
13/10:00pm 18.8 16.6 9.3 54 5.1 SSE 11 17 6 9 1018.2 - 0.0
13/09:30pm 18.9 17.1 9.4 54 5.1 SSE 9 11 5 6 1018.2 1015.3 0.0
13/09:00pm 18.9 17.1 9.4 54 5.1 S 9 11 5 6 1017.7 1014.9 0.0
13/08:30pm 19.8 18.0 9.4 51 5.7 S 9 13 5 7 1017.5 1014.7 0.0
13/08:00pm 20.5 18.7 9.4 49 6.1 S 9 13 5 7 1017.2 - 0.0

Other Formats:

Comma delimited format used in spreadsheet applications
http://www.bom.gov.au/fwo/IDD60801/IDD60801.94328.axf

JavaScript Object Notation format (JSON) in row-major order
http://www.bom.gov.au/fwo/IDD60801/IDD60801.94328.json